Time;durP1;ratioP1;P1;durP2;ratioP2;P2;SDS_P1;SDS_P2;PMS_P1;PMS_P2;Temp;Humidity;BMP_temperature;BMP_pressure;BME280_temperature;BME280_humidity;BME280_pressure;Samples;Min_cycle;Max_cycle;Signal;HPM_P1;HPM_P2
2021/01/12 00:00:01;;;;;;;;;;;6.90;98.30;;;;;;4992809;28;19910;-92
2021/01/12 00:02:26;;;;;;;;;;;7.00;98.30;;;;;;4999697;28;20463;-93
2021/01/12 00:04:53;;;;;;;;;;;7.00;98.30;;;;;;4984300;28;19952;-93
2021/01/12 00:07:22;;;;;;;;;;;7.00;98.40;;;;;;5001029;28;19956;-94
2021/01/12 00:09:48;;;;;;;;;;;7.10;98.40;;;;;;5000937;28;19913;-92
2021/01/12 00:12:15;;;;;;;;;;;7.10;98.40;;;;;;5017755;28;19909;-91
2021/01/12 00:14:40;;;;;;;;;;;7.10;98.50;;;;;;5000475;28;20385;-91
2021/01/12 00:17:07;;;;;;;;;;;7.10;98.50;;;;;;4990401;28;20029;-92
2021/01/12 00:19:33;;;;;;;;;;;7.20;98.50;;;;;;4996724;28;19910;-92
2021/01/12 00:21:59;;;;;;;;;;;7.10;98.60;;;;;;5000632;28;19916;-91
2021/01/12 00:24:25;;;;;;;;;;;7.10;98.60;;;;;;4999996;28;20386;-91
2021/01/12 00:26:51;;;;;;;;;;;7.20;98.60;;;;;;5017328;28;19921;-92
2021/01/12 00:29:17;;;;;;;;;;;7.10;98.70;;;;;;5013494;28;20360;-91
2021/01/12 00:31:45;;;;;;;;;;;7.20;98.60;;;;;;4999431;28;19910;-91
2021/01/12 00:34:11;;;;;;;;;;;7.20;98.60;;;;;;4999291;28;19913;-92
2021/01/12 00:36:41;;;;;;;;;;;7.20;98.60;;;;;;4996840;28;19917;-92
2021/01/12 00:39:06;;;;;;;;;;;7.20;98.60;;;;;;4999173;28;19982;-90
2021/01/12 00:41:32;;;;;;;;;;;7.20;98.70;;;;;;4992292;28;19942;-91
2021/01/12 00:43:58;;;;;;;;;;;7.20;98.70;;;;;;4996011;28;19965;-91
2021/01/12 00:46:23;;;;;;;;;;;7.20;98.80;;;;;;4981866;28;19933;-94
2021/01/12 00:48:49;;;;;;;;;;;7.20;98.80;;;;;;4976169;28;19972;-92
2021/01/12 00:51:14;;;;;;;;;;;7.20;98.80;;;;;;4986196;28;19910;-92
2021/01/12 00:53:40;;;;;;;;;;;7.20;98.70;;;;;;5016747;28;19960;-92
2021/01/12 00:56:15;;;;;;;;;;;7.20;98.70;;;;;;4999134;28;19910;-93
2021/01/12 00:58:40;;;;;;;;;;;7.20;98.70;;;;;;4990746;28;20001;-92
2021/01/12 01:01:06;;;;;;;;;;;7.20;98.80;;;;;;4979822;28;19952;-93
2021/01/12 01:03:32;;;;;;;;;;;7.20;98.90;;;;;;4998530;28;19924;-91
2021/01/12 01:05:58;;;;;;;;;;;7.20;98.90;;;;;;4999268;28;20375;-93
2021/01/12 01:08:31;;;;;;;;;;;7.20;98.80;;;;;;5016580;28;19909;-94
2021/01/12 01:10:59;;;;;;;;;;;7.10;99.10;;;;;;5005336;28;19917;-94
2021/01/12 01:13:25;;;;;;;;;;;7.20;98.90;;;;;;4995736;28;19916;-93
2021/01/12 01:15:51;;;;;;;;;;;7.20;98.80;;;;;;4998857;28;20008;-91
2021/01/12 01:18:16;;;;;;;;;;;7.20;98.90;;;;;;4997094;28;19949;-92
2021/01/12 01:20:49;;;;;;;;;;;7.20;98.90;;;;;;4999007;28;19932;-94
2021/01/12 01:23:17;;;;;;;;;;;7.10;98.90;;;;;;5001631;28;20364;-92
2021/01/12 01:25:43;;;;;;;;;;;7.10;98.90;;;;;;4986861;28;19985;-92
2021/01/12 01:28:11;;;;;;;;;;;7.10;98.90;;;;;;4998768;28;20016;-92
2021/01/12 01:30:37;;;;;;;;;;;7.10;99.00;;;;;;4998489;28;19916;-93
2021/01/12 01:33:05;;;;;;;;;;;7.10;99.00;;;;;;4998748;28;20012;-93
2021/01/12 01:35:31;;;;;;;;;;;7.10;99.00;;;;;;4998975;28;20008;-93
2021/01/12 01:37:56;;;;;;;;;;;7.10;98.90;;;;;;4990127;28;19933;-93
2021/01/12 01:40:22;;;;;;;;;;;7.10;99.00;;;;;;4993381;28;19913;-93
2021/01/12 01:42:48;;;;;;;;;;;7.20;99.00;;;;;;4985773;28;19937;-92
2021/01/12 01:45:17;;;;;;;;;;;7.10;99.00;;;;;;4985673;28;19969;-91
2021/01/12 01:47:43;;;;;;;;;;;7.10;99.00;;;;;;4981668;28;19917;-92
2021/01/12 01:50:20;;;;;;;;;;;7.10;99.10;;;;;;4998487;28;20272;-93
2021/01/12 01:52:50;;;;;;;;;;;7.10;99.20;;;;;;4998321;28;19917;-92
2021/01/12 01:55:22;;;;;;;;;;;7.10;99.20;;;;;;4998326;28;20360;-91
2021/01/12 01:57:50;;;;;;;;;;;7.10;99.20;;;;;;5015816;28;20381;-91
2021/01/12 02:00:20;;;;;;;;;;;7.10;99.30;;;;;;4998209;28;19921;-93
2021/01/12 02:02:52;;;;;;;;;;;7.10;99.40;;;;;;4998238;28;19917;-93
2021/01/12 02:05:20;;;;;;;;;;;7.10;99.40;;;;;;4998240;28;19986;-93
2021/01/12 02:07:46;;;;;;;;;;;7.10;99.30;;;;;;4997634;28;19917;-91
2021/01/12 02:10:15;;;;;;;;;;;7.10;99.40;;;;;;4998220;28;19916;-92
2021/01/12 02:12:49;;;;;;;;;;;7.10;99.30;;;;;;4995728;28;19921;-95
2021/01/12 02:15:20;;;;;;;;;;;7.10;99.30;;;;;;4998111;28;19909;-93
2021/01/12 02:18:03;;;;;;;;;;;7.20;99.40;;;;;;5014162;28;19914;-92
2021/01/12 02:20:29;;;;;;;;;;;7.20;99.40;;;;;;5004901;28;19909;-91
2021/01/12 02:23:17;;;;;;;;;;;7.20;99.30;;;;;;5000198;28;19925;-90
2021/01/12 02:25:43;;;;;;;;;;;7.20;99.40;;;;;;4988331;28;19971;-91
2021/01/12 02:28:12;;;;;;;;;;;7.20;99.70;;;;;;5012393;28;19968;-93
2021/01/12 02:30:38;;;;;;;;;;;7.20;99.60;;;;;;4986796;28;19910;-91
2021/01/12 02:33:05;;;;;;;;;;;7.20;99.60;;;;;;5014895;28;19955;-91
2021/01/12 02:35:31;;;;;;;;;;;7.30;99.60;;;;;;4997668;28;20063;-93
2021/01/12 02:38:01;;;;;;;;;;;7.30;99.60;;;;;;4988606;28;19925;-93
2021/01/12 02:40:26;;;;;;;;;;;7.30;99.60;;;;;;4990915;28;19913;-91
2021/01/12 02:42:52;;;;;;;;;;;7.30;99.60;;;;;;4967454;28;19928;-92
2021/01/12 02:45:18;;;;;;;;;;;7.30;99.70;;;;;;4979932;28;20243;-91
2021/01/12 02:47:44;;;;;;;;;;;7.40;99.70;;;;;;4980708;28;19921;-92
2021/01/12 02:50:12;;;;;;;;;;;7.40;99.80;;;;;;4996986;28;19964;-91
2021/01/12 02:52:40;;;;;;;;;;;7.40;99.70;;;;;;4980010;28;19913;-91
2021/01/12 02:55:07;;;;;;;;;;;7.40;99.70;;;;;;4996591;28;19913;-91
2021/01/12 02:57:32;;;;;;;;;;;7.50;99.80;;;;;;4994103;28;19909;-90
2021/01/12 02:59:58;;;;;;;;;;;7.50;99.70;;;;;;4981524;28;19920;-91
2021/01/12 03:02:23;;;;;;;;;;;7.50;99.70;;;;;;4996853;28;19910;-91
2021/01/12 03:04:49;;;;;;;;;;;7.50;99.70;;;;;;5000558;28;19921;-91
2021/01/12 03:07:14;;;;;;;;;;;7.60;99.70;;;;;;4977636;28;20435;-91
2021/01/12 03:09:40;;;;;;;;;;;7.60;99.70;;;;;;4980542;28;19921;-91
2021/01/12 03:12:06;;;;;;;;;;;7.60;99.70;;;;;;4980466;28;19914;-91
2021/01/12 03:14:31;;;;;;;;;;;7.60;99.70;;;;;;4996742;28;19967;-90
2021/01/12 03:16:59;;;;;;;;;;;7.60;99.80;;;;;;4980999;28;19920;-92
2021/01/12 03:19:24;;;;;;;;;;;7.60;99.70;;;;;;4996293;28;19928;-90
2021/01/12 03:21:50;;;;;;;;;;;7.70;99.80;;;;;;5014178;28;19996;-91
2021/01/12 03:24:15;;;;;;;;;;;7.60;99.70;;;;;;4987859;28;19914;-91
2021/01/12 03:26:41;;;;;;;;;;;7.70;99.80;;;;;;4974470;28;19917;-91
2021/01/12 03:29:06;;;;;;;;;;;7.70;99.80;;;;;;4963524;28;19926;-91
2021/01/12 03:31:32;;;;;;;;;;;7.70;99.80;;;;;;4987869;28;19914;-90
2021/01/12 03:33:57;;;;;;;;;;;7.70;99.80;;;;;;4997323;28;20364;-90
2021/01/12 03:36:23;;;;;;;;;;;7.70;99.70;;;;;;4979873;28;19918;-90
2021/01/12 03:38:48;;;;;;;;;;;7.80;99.80;;;;;;4996684;28;19924;-91
2021/01/12 03:41:14;;;;;;;;;;;7.70;99.70;;;;;;4988418;28;19909;-91
2021/01/12 03:43:40;;;;;;;;;;;7.70;99.70;;;;;;4977412;28;19914;-91
2021/01/12 03:46:05;;;;;;;;;;;7.70;99.70;;;;;;4980646;28;19957;-91
2021/01/12 03:48:31;;;;;;;;;;;7.80;99.70;;;;;;4980672;28;19921;-91
2021/01/12 03:50:56;;;;;;;;;;;7.80;99.70;;;;;;4980525;28;19921;-91
2021/01/12 03:53:22;;;;;;;;;;;7.80;99.70;;;;;;4980128;28;19917;-91
2021/01/12 03:55:48;;;;;;;;;;;7.80;99.70;;;;;;4995576;28;20434;-91
2021/01/12 03:58:14;;;;;;;;;;;7.80;99.70;;;;;;4996165;28;19949;-91
2021/01/12 04:00:39;;;;;;;;;;;7.80;99.70;;;;;;4979973;28;19953;-90
2021/01/12 04:03:05;;;;;;;;;;;7.90;99.60;;;;;;4974586;28;19922;-90
2021/01/12 04:05:30;;;;;;;;;;;7.90;99.60;;;;;;5005033;28;19968;-90
2021/01/12 04:07:56;;;;;;;;;;;7.90;99.60;;;;;;4996132;28;20398;-92
2021/01/12 04:10:22;;;;;;;;;;;7.90;99.60;;;;;;5012953;28;19967;-91
2021/01/12 04:12:49;;;;;;;;;;;7.90;99.60;;;;;;4999249;28;20433;-90
2021/01/12 04:15:15;;;;;;;;;;;7.90;99.60;;;;;;4979121;28;19925;-91
2021/01/12 04:17:40;;;;;;;;;;;7.90;99.60;;;;;;4995443;28;19921;-91
2021/01/12 04:20:06;;;;;;;;;;;7.90;99.60;;;;;;4997346;28;19990;-90
2021/01/12 04:22:32;;;;;;;;;;;7.90;99.60;;;;;;4994650;28;19914;-90
2021/01/12 04:24:57;;;;;;;;;;;7.90;99.60;;;;;;5027775;28;19917;-91
2021/01/12 04:27:23;;;;;;;;;;;7.90;99.70;;;;;;5007438;28;19920;-92
2021/01/12 04:29:48;;;;;;;;;;;8.00;99.60;;;;;;5002934;28;19913;-91
2021/01/12 04:32:14;;;;;;;;;;;7.90;99.60;;;;;;4990123;28;20004;-91
2021/01/12 04:34:40;;;;;;;;;;;8.00;99.60;;;;;;4970376;28;19913;-90
2021/01/12 04:37:05;;;;;;;;;;;8.00;99.70;;;;;;4982529;28;20387;-91
2021/01/12 04:39:33;;;;;;;;;;;7.90;99.70;;;;;;4996013;28;19918;-89
2021/01/12 04:41:59;;;;;;;;;;;8.00;99.60;;;;;;4995969;28;20379;-91
2021/01/12 04:44:24;;;;;;;;;;;8.00;99.70;;;;;;4986534;28;19914;-90
2021/01/12 04:46:52;;;;;;;;;;;8.00;99.70;;;;;;5007727;28;19921;-91
2021/01/12 04:49:18;;;;;;;;;;;8.00;99.70;;;;;;4986020;28;19917;-90
2021/01/12 04:51:44;;;;;;;;;;;8.00;99.60;;;;;;4986581;28;19910;-90
2021/01/12 04:54:09;;;;;;;;;;;8.00;99.90;;;;;;4985992;28;19913;-91
2021/01/12 04:56:35;;;;;;;;;;;8.00;99.60;;;;;;4999496;28;20007;-90
2021/01/12 04:59:00;;;;;;;;;;;8.00;99.70;;;;;;4966429;28;20393;-90
2021/01/12 05:01:29;;;;;;;;;;;8.00;99.70;;;;;;4983433;28;19916;-90
2021/01/12 05:03:58;;;;;;;;;;;8.00;99.70;;;;;;4991535;28;19964;-91
2021/01/12 05:06:24;;;;;;;;;;;8.00;99.70;;;;;;4999231;28;19921;-90
2021/01/12 05:08:56;;;;;;;;;;;8.10;99.80;;;;;;4999339;28;19936;-91
2021/01/12 05:11:26;;;;;;;;;;;8.00;99.80;;;;;;4981852;28;19913;-91
2021/01/12 05:13:56;;;;;;;;;;;8.10;99.80;;;;;;4989124;28;20252;-91
2021/01/12 05:16:27;;;;;;;;;;;8.10;99.80;;;;;;4998490;28;19909;-91
2021/01/12 05:18:54;;;;;;;;;;;8.10;99.80;;;;;;4998952;28;19932;-90
2021/01/12 05:21:22;;;;;;;;;;;8.10;99.80;;;;;;5002016;28;19910;-90
2021/01/12 05:23:52;;;;;;;;;;;8.10;99.80;;;;;;4998826;28;19918;-91
2021/01/12 05:26:18;;;;;;;;;;;8.10;99.80;;;;;;4984842;28;19914;-90
2021/01/12 05:28:44;;;;;;;;;;;8.10;99.80;;;;;;4992661;28;19997;-90
2021/01/12 05:31:11;;;;;;;;;;;8.10;99.80;;;;;;4979334;28;19960;-90
2021/01/12 05:33:38;;;;;;;;;;;8.10;99.80;;;;;;4996439;28;19909;-89
2021/01/12 05:36:04;;;;;;;;;;;8.20;99.80;;;;;;4987865;28;19910;-89
2021/01/12 05:38:30;;;;;;;;;;;8.20;99.80;;;;;;4981446;28;19910;-90
2021/01/12 05:40:57;;;;;;;;;;;8.20;99.80;;;;;;4982163;28;20015;-89
2021/01/12 05:43:36;;;;;;;;;;;8.20;99.80;;;;;;4980675;28;20002;-90
2021/01/12 05:46:08;;;;;;;;;;;8.20;99.90;;;;;;5004889;28;19960;-89
2021/01/12 05:48:35;;;;;;;;;;;8.20;99.80;;;;;;5001301;28;19910;-90
2021/01/12 05:51:03;;;;;;;;;;;8.20;99.80;;;;;;4997735;28;19917;-90
2021/01/12 05:53:37;;;;;;;;;;;8.20;99.80;;;;;;4998021;28;19945;-90
2021/01/12 05:56:06;;;;;;;;;;;8.20;99.80;;;;;;5003177;28;19910;-89
2021/01/12 05:58:32;;;;;;;;;;;8.20;99.80;;;;;;4997898;28;19976;-90
2021/01/12 06:01:01;;;;;;;;;;;8.20;99.80;;;;;;4979172;28;20430;-89
2021/01/12 06:03:32;;;;;;;;;;;8.20;99.80;;;;;;4977767;28;20291;-89
2021/01/12 06:05:58;;;;;;;;;;;8.30;99.80;;;;;;5010320;28;19913;-88
2021/01/12 06:08:24;;;;;;;;;;;8.30;99.80;;;;;;4981583;28;19933;-88
2021/01/12 06:10:50;;;;;;;;;;;8.30;99.70;;;;;;4997683;28;19913;-88
2021/01/12 06:13:17;;;;;;;;;;;8.30;99.90;;;;;;4997602;28;19916;-87
2021/01/12 06:15:46;;;;;;;;;;;8.30;99.70;;;;;;4997302;28;20015;-87
2021/01/12 06:18:12;;;;;;;;;;;8.40;99.80;;;;;;5009134;28;19917;-88
2021/01/12 06:20:56;;;;;;;;;;;8.40;99.80;;;;;;5012413;28;19909;-87
2021/01/12 06:23:30;;;;;;;;;;;8.40;99.90;;;;;;4992610;28;19917;-87
2021/01/12 06:25:57;;;;;;;;;;;8.40;99.80;;;;;;4990565;28;19921;-88
2021/01/12 06:28:22;;;;;;;;;;;8.50;99.80;;;;;;4981995;28;19929;-88
2021/01/12 06:30:48;;;;;;;;;;;8.50;99.80;;;;;;4964343;28;19914;-89
2021/01/12 06:33:14;;;;;;;;;;;8.50;99.80;;;;;;4977678;28;19914;-89
2021/01/12 06:35:40;;;;;;;;;;;8.50;99.80;;;;;;4995305;28;20028;-88
2021/01/12 06:38:07;;;;;;;;;;;8.50;99.80;;;;;;4975710;28;19993;-89
2021/01/12 06:40:34;;;;;;;;;;;8.50;99.70;;;;;;4964215;28;19937;-89
2021/01/12 06:43:00;;;;;;;;;;;8.50;99.80;;;;;;4968883;28;20431;-88
2021/01/12 06:45:27;;;;;;;;;;;8.50;99.80;;;;;;4959354;28;20697;-89
2021/01/12 06:47:52;;;;;;;;;;;8.50;99.80;;;;;;4981724;28;19914;-86
2021/01/12 06:50:18;;;;;;;;;;;8.50;99.90;;;;;;4962629;28;19914;-88
2021/01/12 06:52:45;;;;;;;;;;;8.50;99.90;;;;;;4957987;28;20053;-88
2021/01/12 06:55:11;;;;;;;;;;;8.60;99.90;;;;;;4978256;28;20319;-89
2021/01/12 06:57:37;;;;;;;;;;;8.50;99.90;;;;;;4973038;28;19921;-90
2021/01/12 07:00:10;;;;;;;;;;;8.60;99.70;;;;;;4961119;28;19914;-89
2021/01/12 07:02:35;;;;;;;;;;;8.60;99.70;;;;;;4960643;28;19918;-90
2021/01/12 07:05:10;;;;;;;;;;;8.60;99.60;;;;;;4982679;28;20283;-90
2021/01/12 07:07:37;;;;;;;;;;;8.60;99.50;;;;;;4971152;28;19917;-89
2021/01/12 07:10:14;;;;;;;;;;;8.60;99.60;;;;;;4971176;28;19914;-90
2021/01/12 07:12:40;;;;;;;;;;;8.50;99.50;;;;;;4974133;28;19969;-90
2021/01/12 07:15:07;;;;;;;;;;;8.50;99.60;;;;;;4957153;28;19960;-91
2021/01/12 07:17:33;;;;;;;;;;;8.50;99.60;;;;;;4973127;28;19918;-90
2021/01/12 07:20:06;;;;;;;;;;;8.50;99.60;;;;;;4976627;28;19960;-90
2021/01/12 07:22:33;;;;;;;;;;;8.50;99.60;;;;;;4993709;28;19917;-90
2021/01/12 07:24:59;;;;;;;;;;;8.50;99.60;;;;;;4960317;28;19963;-90
2021/01/12 07:27:25;;;;;;;;;;;8.50;99.60;;;;;;4969447;28;20008;-90
2021/01/12 07:29:54;;;;;;;;;;;8.50;99.70;;;;;;4994383;28;19977;-89
2021/01/12 07:32:24;;;;;;;;;;;8.50;99.60;;;;;;4978414;28;19977;-89
2021/01/12 07:34:49;;;;;;;;;;;8.50;99.60;;;;;;5013695;28;19913;-89
2021/01/12 07:37:15;;;;;;;;;;;8.50;99.60;;;;;;4997037;28;19917;-89
2021/01/12 07:39:41;;;;;;;;;;;8.50;99.60;;;;;;4989371;28;19968;-89
2021/01/12 07:42:07;;;;;;;;;;;8.50;99.60;;;;;;5012955;28;20000;-87
2021/01/12 07:44:33;;;;;;;;;;;8.50;99.50;;;;;;4996180;28;20339;-90
2021/01/12 07:46:58;;;;;;;;;;;8.50;99.40;;;;;;4977042;28;19928;-89
2021/01/12 07:49:27;;;;;;;;;;;8.50;99.40;;;;;;4979656;28;19917;-86
2021/01/12 07:51:52;;;;;;;;;;;8.40;99.40;;;;;;4987695;28;19914;-87
2021/01/12 07:54:23;;;;;;;;;;;8.40;99.40;;;;;;4975980;28;19921;-88
2021/01/12 07:56:50;;;;;;;;;;;8.40;99.40;;;;;;5006651;28;20371;-87
2021/01/12 07:59:16;;;;;;;;;;;8.40;99.40;;;;;;4988814;28;20377;-88
2021/01/12 08:01:42;;;;;;;;;;;8.40;99.40;;;;;;4989689;28;19914;-87
2021/01/12 08:04:11;;;;;;;;;;;8.40;99.40;;;;;;4985576;28;19914;-88
2021/01/12 08:06:43;;;;;;;;;;;8.40;99.40;;;;;;4976044;28;20008;-87
2021/01/12 08:09:09;;;;;;;;;;;8.40;99.40;;;;;;4994906;28;20433;-89
2021/01/12 08:11:36;;;;;;;;;;;8.40;99.30;;;;;;4993512;28;19913;-88
2021/01/12 08:14:05;;;;;;;;;;;8.40;99.40;;;;;;4972742;28;19917;-88
2021/01/12 08:16:31;;;;;;;;;;;8.40;99.40;;;;;;4987309;28;19964;-90
2021/01/12 08:18:57;;;;;;;;;;;8.40;99.40;;;;;;4982211;28;19964;-87
2021/01/12 08:21:22;;;;;;;;;;;8.40;99.50;;;;;;4995472;28;20352;-88
2021/01/12 08:23:48;;;;;;;;;;;8.40;99.40;;;;;;4978449;28;20406;-88
2021/01/12 08:26:13;;;;;;;;;;;8.40;99.50;;;;;;4999215;28;19913;-85
2021/01/12 08:28:39;;;;;;;;;;;8.40;99.40;;;;;;4978697;28;19926;-85
2021/01/12 08:31:14;;;;;;;;;;;8.40;99.40;;;;;;4990381;28;19953;-86
2021/01/12 08:33:42;;;;;;;;;;;8.40;99.30;;;;;;4996554;28;19945;-86
2021/01/12 08:36:07;;;;;;;;;;;8.40;99.30;;;;;;5004472;28;19963;-89
2021/01/12 08:38:33;;;;;;;;;;;8.40;99.30;;;;;;4997115;28;20285;-88
2021/01/12 08:41:03;;;;;;;;;;;8.40;99.30;;;;;;5015529;28;19920;-88
2021/01/12 08:43:29;;;;;;;;;;;8.30;99.30;;;;;;4999116;28;19949;-88
2021/01/12 08:46:02;;;;;;;;;;;8.30;99.40;;;;;;4998753;28;19953;-88
2021/01/12 08:48:27;;;;;;;;;;;8.30;99.40;;;;;;5012045;28;19909;-89
2021/01/12 08:50:53;;;;;;;;;;;8.30;99.30;;;;;;5002851;28;19913;-87
2021/01/12 08:53:25;;;;;;;;;;;8.30;99.20;;;;;;4992158;28;20279;-87
2021/01/12 08:55:51;;;;;;;;;;;8.30;99.20;;;;;;5011970;28;19925;-88
2021/01/12 08:58:17;;;;;;;;;;;8.30;99.20;;;;;;5005138;28;20283;-88
2021/01/12 09:00:42;;;;;;;;;;;8.30;99.20;;;;;;4983895;28;19956;-87
2021/01/12 09:03:12;;;;;;;;;;;8.30;99.20;;;;;;4991711;28;20027;-86
2021/01/12 09:05:39;;;;;;;;;;;8.30;99.20;;;;;;5000473;28;20366;-89
2021/01/12 09:08:08;;;;;;;;;;;8.30;99.20;;;;;;4993816;28;20538;-87
2021/01/12 09:10:34;;;;;;;;;;;8.30;99.20;;;;;;4997364;28;19910;-87
2021/01/12 09:13:02;;;;;;;;;;;8.20;99.20;;;;;;4997846;28;19909;-85
2021/01/12 09:15:29;;;;;;;;;;;8.20;99.10;;;;;;4994652;28;19910;-87
2021/01/12 09:18:05;;;;;;;;;;;8.20;99.10;;;;;;4997658;28;19918;-88
2021/01/12 09:20:31;;;;;;;;;;;8.20;99.20;;;;;;4997337;28;19925;-88
2021/01/12 09:23:03;;;;;;;;;;;8.20;99.10;;;;;;4981966;28;20020;-86
2021/01/12 09:25:29;;;;;;;;;;;8.20;99.00;;;;;;4997741;28;20264;-89
2021/01/12 09:28:04;;;;;;;;;;;8.20;98.90;;;;;;4994508;28;19932;-88
2021/01/12 09:30:30;;;;;;;;;;;8.20;98.90;;;;;;4996536;28;19919;-89
2021/01/12 09:32:55;;;;;;;;;;;8.20;98.90;;;;;;4990849;28;20220;-87
2021/01/12 09:35:21;;;;;;;;;;;8.20;98.90;;;;;;5013192;28;19917;-87
2021/01/12 09:37:56;;;;;;;;;;;8.10;98.90;;;;;;5014272;28;19937;-88
2021/01/12 09:40:22;;;;;;;;;;;8.10;98.90;;;;;;4997172;28;20402;-88
2021/01/12 09:42:47;;;;;;;;;;;8.10;98.90;;;;;;4997791;28;19918;-88
2021/01/12 09:45:13;;;;;;;;;;;8.10;98.90;;;;;;4987543;28;20017;-88
2021/01/12 09:47:38;;;;;;;;;;;8.00;98.80;;;;;;4995218;28;20008;-89
2021/01/12 09:50:04;;;;;;;;;;;8.00;98.80;;;;;;4993540;28;19918;-88
2021/01/12 09:52:30;;;;;;;;;;;8.00;98.90;;;;;;5014880;28;20353;-89
2021/01/12 09:54:56;;;;;;;;;;;8.00;98.90;;;;;;4980378;28;20017;-89
2021/01/12 09:57:21;;;;;;;;;;;8.00;98.90;;;;;;5000901;28;19914;-90
2021/01/12 09:59:47;;;;;;;;;;;8.00;98.80;;;;;;4995732;28;20363;-88
2021/01/12 10:02:12;;;;;;;;;;;7.90;98.80;;;;;;4975316;28;19917;-90
2021/01/12 10:04:38;;;;;;;;;;;7.90;99.10;;;;;;4994123;28;20326;-89
2021/01/12 10:07:03;;;;;;;;;;;7.90;98.90;;;;;;5013270;28;20346;-89
2021/01/12 10:09:31;;;;;;;;;;;7.90;99.00;;;;;;4995752;28;19916;-88
2021/01/12 10:11:57;;;;;;;;;;;7.90;98.90;;;;;;5013475;28;20367;-90
2021/01/12 10:14:24;;;;;;;;;;;7.90;98.90;;;;;;4996634;28;19932;-89
2021/01/12 10:16:49;;;;;;;;;;;7.90;98.90;;;;;;4999676;28;19918;-89
2021/01/12 10:19:15;;;;;;;;;;;7.90;98.90;;;;;;5003033;28;19917;-88
2021/01/12 10:21:40;;;;;;;;;;;7.90;98.80;;;;;;4974420;28;20474;-89
2021/01/12 10:24:06;;;;;;;;;;;7.90;98.70;;;;;;4995961;28;19921;-88
2021/01/12 10:26:32;;;;;;;;;;;7.90;98.80;;;;;;4979672;28;20008;-90
2021/01/12 10:28:58;;;;;;;;;;;7.90;98.80;;;;;;4976322;28;20292;-88
2021/01/12 10:31:24;;;;;;;;;;;7.90;98.80;;;;;;5006898;28;19923;-88
2021/01/12 10:33:50;;;;;;;;;;;7.90;98.80;;;;;;5013489;28;19909;-89
2021/01/12 10:36:16;;;;;;;;;;;7.90;98.80;;;;;;4995788;28;19921;-90
2021/01/12 10:38:42;;;;;;;;;;;7.80;98.70;;;;;;5013914;28;20017;-88
2021/01/12 10:41:08;;;;;;;;;;;7.90;98.80;;;;;;4995941;28;19959;-87
2021/01/12 10:43:37;;;;;;;;;;;7.90;98.70;;;;;;4995579;28;19913;-87
2021/01/12 10:46:03;;;;;;;;;;;7.90;98.70;;;;;;4996936;28;19914;-88
2021/01/12 10:48:28;;;;;;;;;;;7.80;98.60;;;;;;4995957;28;19909;-87
2021/01/12 10:50:54;;;;;;;;;;;7.80;98.60;;;;;;4995608;28;19920;-88
2021/01/12 10:53:20;;;;;;;;;;;7.80;98.60;;;;;;4976392;28;20360;-87
2021/01/12 10:55:46;;;;;;;;;;;7.70;98.60;;;;;;5005226;28;20271;-88
2021/01/12 10:58:11;;;;;;;;;;;7.70;98.60;;;;;;5012680;28;19918;-87
2021/01/12 11:00:37;;;;;;;;;;;7.70;98.60;;;;;;4995611;28;19913;-87
2021/01/12 11:03:05;;;;;;;;;;;7.70;98.40;;;;;;4975745;28;20433;-88
2021/01/12 11:05:31;;;;;;;;;;;7.70;98.50;;;;;;4970003;28;20307;-88
2021/01/12 11:07:57;;;;;;;;;;;7.60;98.60;;;;;;4978821;28;19920;-88
2021/01/12 11:10:22;;;;;;;;;;;7.60;98.50;;;;;;4975794;28;19953;-88
2021/01/12 11:12:48;;;;;;;;;;;7.60;98.50;;;;;;4993076;28;19909;-88
2021/01/12 11:15:14;;;;;;;;;;;7.60;98.50;;;;;;4979230;28;19921;-88
2021/01/12 11:17:39;;;;;;;;;;;7.60;98.60;;;;;;5001260;28;20021;-88
2021/01/12 11:20:06;;;;;;;;;;;7.60;98.50;;;;;;4994798;28;20004;-88
2021/01/12 11:22:32;;;;;;;;;;;7.60;98.60;;;;;;4995000;28;19992;-88
2021/01/12 11:25:01;;;;;;;;;;;7.60;98.70;;;;;;5012497;28;20004;-89
2021/01/12 11:27:27;;;;;;;;;;;7.60;98.70;;;;;;5006664;28;20398;-89
2021/01/12 11:29:54;;;;;;;;;;;7.70;98.70;;;;;;4999956;28;19925;-89
2021/01/12 11:32:20;;;;;;;;;;;7.70;98.70;;;;;;4995070;28;19924;-88
2021/01/12 11:34:46;;;;;;;;;;;7.70;98.60;;;;;;4979204;28;19996;-89
2021/01/12 11:37:11;;;;;;;;;;;7.80;98.70;;;;;;4970576;28;19989;-88
2021/01/12 11:39:37;;;;;;;;;;;7.80;98.70;;;;;;4994928;28;19993;-89
2021/01/12 11:42:05;;;;;;;;;;;7.80;98.70;;;;;;5011906;28;19981;-89
2021/01/12 11:44:31;;;;;;;;;;;7.90;98.60;;;;;;4995639;28;19926;-89
2021/01/12 11:46:56;;;;;;;;;;;7.90;98.60;;;;;;4995264;28;19979;-88
2021/01/12 11:49:22;;;;;;;;;;;7.90;98.70;;;;;;4981073;28;19913;-90
2021/01/12 11:51:49;;;;;;;;;;;8.00;98.70;;;;;;4995164;28;20008;-90
2021/01/12 11:54:15;;;;;;;;;;;8.00;98.60;;;;;;4994863;28;19920;-89
2021/01/12 11:56:41;;;;;;;;;;;8.00;98.50;;;;;;4994605;28;20000;-88
2021/01/12 11:59:07;;;;;;;;;;;8.00;98.50;;;;;;5002597;28;20048;-90
2021/01/12 12:01:43;;;;;;;;;;;8.00;98.40;;;;;;4981218;28;19921;-89
2021/01/12 12:04:08;;;;;;;;;;;8.00;98.10;;;;;;5001348;28;20360;-90
2021/01/12 12:06:34;;;;;;;;;;;7.90;97.90;;;;;;5010088;28;19920;-90
2021/01/12 12:08:59;;;;;;;;;;;7.90;97.70;;;;;;4978182;28;19916;-89
2021/01/12 12:11:25;;;;;;;;;;;7.90;97.70;;;;;;5011910;28;20375;-89
2021/01/12 12:13:51;;;;;;;;;;;7.80;97.50;;;;;;5011589;28;19925;-90
2021/01/12 12:16:16;;;;;;;;;;;7.80;97.60;;;;;;4994150;28;19930;-89
2021/01/12 12:18:45;;;;;;;;;;;7.80;97.50;;;;;;4974926;28;20387;-89
2021/01/12 12:21:14;;;;;;;;;;;7.70;97.50;;;;;;5002488;28;19917;-88
2021/01/12 12:23:40;;;;;;;;;;;7.70;97.60;;;;;;5011331;28;20376;-89
2021/01/12 12:26:09;;;;;;;;;;;7.80;97.70;;;;;;5002966;28;19997;-88
2021/01/12 12:28:35;;;;;;;;;;;7.80;97.00;;;;;;4992094;28;20050;-89
2021/01/12 12:31:01;;;;;;;;;;;7.70;97.10;;;;;;4988710;28;20483;-89
2021/01/12 12:33:26;;;;;;;;;;;7.70;97.20;;;;;;4959409;28;20004;-88
2021/01/12 12:35:52;;;;;;;;;;;7.70;97.40;;;;;;4975305;28;19961;-88
2021/01/12 12:38:17;;;;;;;;;;;7.70;97.30;;;;;;4972722;28;20009;-87
2021/01/12 12:40:43;;;;;;;;;;;7.80;97.10;;;;;;4976079;28;20359;-86
2021/01/12 12:43:08;;;;;;;;;;;7.80;96.50;;;;;;4991865;28;20415;-88
2021/01/12 12:45:34;;;;;;;;;;;7.80;96.30;;;;;;4953256;28;19922;-86
2021/01/12 12:48:03;;;;;;;;;;;7.70;95.90;;;;;;4958799;28;19914;-87
2021/01/12 12:50:28;;;;;;;;;;;7.70;94.70;;;;;;4965017;28;19914;-90
2021/01/12 12:52:54;;;;;;;;;;;7.70;95.10;;;;;;4974384;28;19916;-87
2021/01/12 12:55:20;;;;;;;;;;;7.60;95.70;;;;;;4971134;28;19972;-90
2021/01/12 12:57:46;;;;;;;;;;;7.70;95.70;;;;;;4953343;28;19918;-89
2021/01/12 13:00:13;;;;;;;;;;;7.70;95.90;;;;;;4972104;28;19925;-87
2021/01/12 13:02:39;;;;;;;;;;;7.70;96.00;;;;;;4951769;28;19953;-86
2021/01/12 13:05:05;;;;;;;;;;;7.70;96.00;;;;;;4952895;28;19949;-87
2021/01/12 13:07:31;;;;;;;;;;;7.80;96.10;;;;;;4983315;28;19918;-87
2021/01/12 13:09:57;;;;;;;;;;;7.80;94.00;;;;;;4960347;28;19914;-87
2021/01/12 13:12:27;;;;;;;;;;;7.80;94.90;;;;;;4960894;28;19926;-88
2021/01/12 13:14:53;;;;;;;;;;;7.80;94.90;;;;;;4990980;28;20013;-87
2021/01/12 13:17:21;;;;;;;;;;;7.80;95.60;;;;;;4973416;28;19917;-88
2021/01/12 13:19:50;;;;;;;;;;;7.80;95.70;;;;;;4980112;28;19910;-87
2021/01/12 13:22:15;;;;;;;;;;;7.90;95.10;;;;;;4980410;28;20658;-86
2021/01/12 13:24:41;;;;;;;;;;;7.90;93.00;;;;;;4976948;28;19944;-87
2021/01/12 13:27:07;;;;;;;;;;;7.90;93.40;;;;;;4949638;28;20419;-86
2021/01/12 13:29:33;;;;;;;;;;;7.90;93.70;;;;;;4961961;28;20375;-87
2021/01/12 13:32:07;;;;;;;;;;;7.90;94.10;;;;;;4977793;28;19921;-86
2021/01/12 13:34:33;;;;;;;;;;;7.90;93.80;;;;;;4977896;28;19969;-87
2021/01/12 13:36:58;;;;;;;;;;;7.90;94.00;;;;;;4973384;28;20384;-87
2021/01/12 13:39:24;;;;;;;;;;;8.00;94.20;;;;;;4958835;28;20009;-87
2021/01/12 13:41:49;;;;;;;;;;;8.00;93.30;;;;;;4957125;28;19913;-88
2021/01/12 13:44:15;;;;;;;;;;;8.00;94.00;;;;;;4973335;28;19921;-87
2021/01/12 13:46:41;;;;;;;;;;;8.00;93.10;;;;;;4970050;28;20027;-88
2021/01/12 13:49:07;;;;;;;;;;;8.00;92.40;;;;;;4989219;28;20377;-89
2021/01/12 13:51:36;;;;;;;;;;;8.10;92.10;;;;;;4967593;28;20012;-87
2021/01/12 13:54:02;;;;;;;;;;;8.00;90.50;;;;;;4986823;28;20315;-87
2021/01/12 13:56:27;;;;;;;;;;;7.90;90.80;;;;;;4988650;28;19968;-87
2021/01/12 13:58:53;;;;;;;;;;;7.90;91.20;;;;;;4958974;28;20009;-89
2021/01/12 14:01:19;;;;;;;;;;;7.80;92.10;;;;;;4976724;28;20025;-89
2021/01/12 14:03:45;;;;;;;;;;;7.80;91.30;;;;;;4980344;28;20427;-88
2021/01/12 14:06:10;;;;;;;;;;;7.80;91.30;;;;;;4958601;28;20699;-87
2021/01/12 14:08:39;;;;;;;;;;;7.80;91.10;;;;;;4954703;28;19917;-89
2021/01/12 14:11:05;;;;;;;;;;;7.80;91.50;;;;;;4972503;28;19915;-89
2021/01/12 14:13:34;;;;;;;;;;;7.70;90.30;;;;;;4975639;28;20021;-89
2021/01/12 14:15:59;;;;;;;;;;;7.60;90.20;;;;;;4959985;28;20361;-88
2021/01/12 14:18:32;;;;;;;;;;;7.60;90.30;;;;;;4961365;28;19918;-88
2021/01/12 14:20:58;;;;;;;;;;;7.50;89.70;;;;;;4974135;28;19914;-90
2021/01/12 14:23:24;;;;;;;;;;;7.50;90.90;;;;;;4972169;28;19925;-89
2021/01/12 14:25:50;;;;;;;;;;;7.50;90.30;;;;;;4968641;28;20304;-92
2021/01/12 14:28:15;;;;;;;;;;;7.40;87.20;;;;;;4981260;28;19929;-88